sensor_id;sensor_type;location;lat;lon;timestamp;P1;durP1;ratioP1;P2;durP2;ratioP2
5167;SDS011;2603;48.918;8.980;2022-09-09T00:01:14;3.57;;;1.73;;
5167;SDS011;2603;48.918;8.980;2022-09-09T00:03:52;3.07;;;1.87;;
5167;SDS011;2603;48.918;8.980;2022-09-09T00:06:21;5.87;;;1.50;;
5167;SDS011;2603;48.918;8.980;2022-09-09T00:08:53;2.80;;;1.43;;
5167;SDS011;2603;48.918;8.980;2022-09-09T00:11:26;4.00;;;1.80;;
5167;SDS011;2603;48.918;8.980;2022-09-09T00:13:56;7.10;;;2.10;;
5167;SDS011;2603;48.918;8.980;2022-09-09T00:16:25;4.80;;;1.90;;
5167;SDS011;2603;48.918;8.980;2022-09-09T00:18:57;4.00;;;1.90;;
5167;SDS011;2603;48.918;8.980;2022-09-09T00:21:30;5.40;;;1.90;;
5167;SDS011;2603;48.918;8.980;2022-09-09T00:23:59;9.23;;;2.47;;
5167;SDS011;2603;48.918;8.980;2022-09-09T00:26:30;2.73;;;1.60;;
5167;SDS011;2603;48.918;8.980;2022-09-09T00:29:03;5.30;;;1.70;;
5167;SDS011;2603;48.918;8.980;2022-09-09T00:31:31;3.27;;;1.77;;
5167;SDS011;2603;48.918;8.980;2022-09-09T00:34:00;4.80;;;2.07;;
5167;SDS011;2603;48.918;8.980;2022-09-09T00:36:31;3.83;;;1.60;;
5167;SDS011;2603;48.918;8.980;2022-09-09T00:39:00;5.43;;;1.70;;
5167;SDS011;2603;48.918;8.980;2022-09-09T00:41:30;5.50;;;1.50;;
5167;SDS011;2603;48.918;8.980;2022-09-09T00:44:07;9.40;;;1.70;;
5167;SDS011;2603;48.918;8.980;2022-09-09T00:49:43;7.13;;;1.53;;
5167;SDS011;2603;48.918;8.980;2022-09-09T00:52:20;2.57;;;1.30;;
5167;SDS011;2603;48.918;8.980;2022-09-09T00:54:53;5.00;;;2.03;;
5167;SDS011;2603;48.918;8.980;2022-09-09T00:57:26;5.77;;;1.57;;
5167;SDS011;2603;48.918;8.980;2022-09-09T01:00:15;3.93;;;1.97;;
5167;SDS011;2603;48.918;8.980;2022-09-09T01:02:46;5.40;;;1.70;;
5167;SDS011;2603;48.918;8.980;2022-09-09T01:05:26;9.03;;;1.67;;
5167;SDS011;2603;48.918;8.980;2022-09-09T01:07:57;5.10;;;1.50;;
5167;SDS011;2603;48.918;8.980;2022-09-09T01:10:26;9.60;;;1.40;;
5167;SDS011;2603;48.918;8.980;2022-09-09T01:12:58;2.83;;;1.73;;
5167;SDS011;2603;48.918;8.980;2022-09-09T01:15:30;5.73;;;2.00;;
5167;SDS011;2603;48.918;8.980;2022-09-09T01:17:58;5.30;;;2.00;;
5167;SDS011;2603;48.918;8.980;2022-09-09T01:20:30;4.17;;;1.73;;
5167;SDS011;2603;48.918;8.980;2022-09-09T01:23:11;2.93;;;1.33;;
5167;SDS011;2603;48.918;8.980;2022-09-09T01:26:07;3.47;;;1.70;;
5167;SDS011;2603;48.918;8.980;2022-09-09T01:28:42;3.90;;;1.40;;
5167;SDS011;2603;48.918;8.980;2022-09-09T01:31:14;2.37;;;1.50;;
5167;SDS011;2603;48.918;8.980;2022-09-09T01:33:45;2.60;;;1.43;;
5167;SDS011;2603;48.918;8.980;2022-09-09T01:36:13;5.83;;;1.20;;
5167;SDS011;2603;48.918;8.980;2022-09-09T01:38:49;7.20;;;1.77;;
5167;SDS011;2603;48.918;8.980;2022-09-09T01:41:18;3.27;;;1.20;;
5167;SDS011;2603;48.918;8.980;2022-09-09T01:43:49;2.80;;;1.63;;
5167;SDS011;2603;48.918;8.980;2022-09-09T01:46:17;2.70;;;1.33;;
5167;SDS011;2603;48.918;8.980;2022-09-09T01:48:45;5.47;;;1.80;;
5167;SDS011;2603;48.918;8.980;2022-09-09T01:51:12;6.67;;;1.40;;
5167;SDS011;2603;48.918;8.980;2022-09-09T01:53:38;4.03;;;1.63;;
5167;SDS011;2603;48.918;8.980;2022-09-09T01:56:08;3.30;;;1.30;;
5167;SDS011;2603;48.918;8.980;2022-09-09T01:58:46;6.03;;;1.53;;
5167;SDS011;2603;48.918;8.980;2022-09-09T02:01:22;9.83;;;1.70;;
5167;SDS011;2603;48.918;8.980;2022-09-09T02:03:56;4.90;;;1.53;;
5167;SDS011;2603;48.918;8.980;2022-09-09T02:06:25;3.47;;;1.53;;
5167;SDS011;2603;48.918;8.980;2022-09-09T02:09:01;4.60;;;1.80;;
5167;SDS011;2603;48.918;8.980;2022-09-09T02:11:29;3.67;;;1.70;;
5167;SDS011;2603;48.918;8.980;2022-09-09T02:14:05;3.80;;;1.73;;
5167;SDS011;2603;48.918;8.980;2022-09-09T02:16:37;10.53;;;1.77;;
5167;SDS011;2603;48.918;8.980;2022-09-09T02:19:08;3.13;;;1.53;;
5167;SDS011;2603;48.918;8.980;2022-09-09T02:21:50;2.77;;;2.13;;
5167;SDS011;2603;48.918;8.980;2022-09-09T02:24:17;7.10;;;1.60;;
5167;SDS011;2603;48.918;8.980;2022-09-09T02:26:51;4.43;;;1.57;;
5167;SDS011;2603;48.918;8.980;2022-09-09T02:29:22;3.03;;;1.13;;
5167;SDS011;2603;48.918;8.980;2022-09-09T02:31:52;3.43;;;1.50;;
5167;SDS011;2603;48.918;8.980;2022-09-09T02:34:23;3.50;;;1.77;;
5167;SDS011;2603;48.918;8.980;2022-09-09T02:36:52;4.30;;;1.60;;
5167;SDS011;2603;48.918;8.980;2022-09-09T02:39:20;4.67;;;1.53;;
5167;SDS011;2603;48.918;8.980;2022-09-09T02:41:49;5.20;;;1.57;;
5167;SDS011;2603;48.918;8.980;2022-09-09T02:44:16;3.33;;;1.70;;
5167;SDS011;2603;48.918;8.980;2022-09-09T02:46:51;2.20;;;1.40;;
5167;SDS011;2603;48.918;8.980;2022-09-09T02:49:31;3.67;;;1.40;;
5167;SDS011;2603;48.918;8.980;2022-09-09T02:52:04;9.03;;;1.70;;
5167;SDS011;2603;48.918;8.980;2022-09-09T02:54:35;4.63;;;1.70;;
5167;SDS011;2603;48.918;8.980;2022-09-09T02:57:06;3.53;;;1.80;;
5167;SDS011;2603;48.918;8.980;2022-09-09T02:59:38;9.27;;;2.43;;
5167;SDS011;2603;48.918;8.980;2022-09-09T03:02:06;6.03;;;1.93;;
5167;SDS011;2603;48.918;8.980;2022-09-09T03:04:36;4.13;;;1.40;;
5167;SDS011;2603;48.918;8.980;2022-09-09T03:07:03;4.70;;;1.83;;
5167;SDS011;2603;48.918;8.980;2022-09-09T03:09:30;3.30;;;1.20;;
5167;SDS011;2603;48.918;8.980;2022-09-09T03:11:57;3.83;;;1.43;;
5167;SDS011;2603;48.918;8.980;2022-09-09T03:14:26;4.03;;;1.10;;
5167;SDS011;2603;48.918;8.980;2022-09-09T03:16:54;2.37;;;1.53;;
5167;SDS011;2603;48.918;8.980;2022-09-09T03:19:23;5.73;;;2.10;;
5167;SDS011;2603;48.918;8.980;2022-09-09T03:21:50;2.03;;;0.90;;
5167;SDS011;2603;48.918;8.980;2022-09-09T03:24:17;3.20;;;1.00;;
5167;SDS011;2603;48.918;8.980;2022-09-09T03:26:44;4.10;;;1.20;;
5167;SDS011;2603;48.918;8.980;2022-09-09T03:29:15;1.80;;;0.83;;
5167;SDS011;2603;48.918;8.980;2022-09-09T03:31:43;3.33;;;1.37;;
5167;SDS011;2603;48.918;8.980;2022-09-09T03:34:11;14.80;;;1.60;;
5167;SDS011;2603;48.918;8.980;2022-09-09T03:36:40;7.07;;;1.30;;
5167;SDS011;2603;48.918;8.980;2022-09-09T03:39:07;5.43;;;1.07;;
5167;SDS011;2603;48.918;8.980;2022-09-09T03:41:34;1.70;;;0.77;;
5167;SDS011;2603;48.918;8.980;2022-09-09T03:44:03;4.23;;;0.70;;
5167;SDS011;2603;48.918;8.980;2022-09-09T03:46:35;3.63;;;0.90;;
5167;SDS011;2603;48.918;8.980;2022-09-09T03:49:01;4.70;;;0.80;;
5167;SDS011;2603;48.918;8.980;2022-09-09T03:51:30;1.33;;;0.60;;
5167;SDS011;2603;48.918;8.980;2022-09-09T03:53:58;1.80;;;0.80;;
5167;SDS011;2603;48.918;8.980;2022-09-09T03:56:27;2.10;;;0.90;;
5167;SDS011;2603;48.918;8.980;2022-09-09T03:58:54;2.20;;;0.90;;
5167;SDS011;2603;48.918;8.980;2022-09-09T04:01:21;9.13;;;1.90;;
5167;SDS011;2603;48.918;8.980;2022-09-09T04:03:48;2.40;;;1.20;;
5167;SDS011;2603;48.918;8.980;2022-09-09T04:06:18;3.27;;;1.27;;
5167;SDS011;2603;48.918;8.980;2022-09-09T04:08:47;3.40;;;0.97;;
5167;SDS011;2603;48.918;8.980;2022-09-09T04:11:16;6.27;;;1.43;;
5167;SDS011;2603;48.918;8.980;2022-09-09T04:13:44;2.50;;;1.33;;
5167;SDS011;2603;48.918;8.980;2022-09-09T04:16:12;4.03;;;0.80;;
5167;SDS011;2603;48.918;8.980;2022-09-09T04:18:40;3.13;;;1.10;;
5167;SDS011;2603;48.918;8.980;2022-09-09T04:21:08;4.73;;;1.57;;
5167;SDS011;2603;48.918;8.980;2022-09-09T04:23:37;3.27;;;1.30;;
5167;SDS011;2603;48.918;8.980;2022-09-09T04:26:04;4.90;;;1.30;;
5167;SDS011;2603;48.918;8.980;2022-09-09T04:28:34;2.87;;;1.57;;
5167;SDS011;2603;48.918;8.980;2022-09-09T04:31:03;7.03;;;2.23;;
5167;SDS011;2603;48.918;8.980;2022-09-09T04:33:32;2.13;;;0.80;;
5167;SDS011;2603;48.918;8.980;2022-09-09T04:35:58;4.67;;;1.03;;
5167;SDS011;2603;48.918;8.980;2022-09-09T04:38:25;6.50;;;1.10;;
5167;SDS011;2603;48.918;8.980;2022-09-09T04:40:54;2.93;;;0.93;;
5167;SDS011;2603;48.918;8.980;2022-09-09T04:43:21;3.13;;;0.80;;
5167;SDS011;2603;48.918;8.980;2022-09-09T04:45:52;2.63;;;1.00;;
5167;SDS011;2603;48.918;8.980;2022-09-09T04:48:22;16.00;;;1.73;;
5167;SDS011;2603;48.918;8.980;2022-09-09T04:50:56;2.90;;;0.73;;
5167;SDS011;2603;48.918;8.980;2022-09-09T04:53:23;1.90;;;1.10;;
5167;SDS011;2603;48.918;8.980;2022-09-09T04:55:51;3.93;;;1.10;;
5167;SDS011;2603;48.918;8.980;2022-09-09T04:58:18;1.80;;;0.90;;
5167;SDS011;2603;48.918;8.980;2022-09-09T05:00:48;4.37;;;1.03;;
5167;SDS011;2603;48.918;8.980;2022-09-09T05:03:19;2.50;;;1.17;;
5167;SDS011;2603;48.918;8.980;2022-09-09T05:05:45;6.70;;;0.90;;
5167;SDS011;2603;48.918;8.980;2022-09-09T05:08:12;3.83;;;1.20;;
5167;SDS011;2603;48.918;8.980;2022-09-09T05:10:39;2.43;;;0.90;;
5167;SDS011;2603;48.918;8.980;2022-09-09T05:13:07;2.30;;;0.90;;
5167;SDS011;2603;48.918;8.980;2022-09-09T05:15:35;4.80;;;1.40;;
5167;SDS011;2603;48.918;8.980;2022-09-09T05:18:02;2.30;;;1.00;;
5167;SDS011;2603;48.918;8.980;2022-09-09T05:20:32;3.00;;;1.13;;
5167;SDS011;2603;48.918;8.980;2022-09-09T05:23:00;2.10;;;0.87;;
5167;SDS011;2603;48.918;8.980;2022-09-09T05:25:28;6.57;;;1.00;;
5167;SDS011;2603;48.918;8.980;2022-09-09T05:27:55;3.23;;;1.27;;
5167;SDS011;2603;48.918;8.980;2022-09-09T05:30:22;3.47;;;0.90;;
5167;SDS011;2603;48.918;8.980;2022-09-09T05:32:52;4.83;;;0.87;;
5167;SDS011;2603;48.918;8.980;2022-09-09T05:35:18;5.90;;;1.00;;
5167;SDS011;2603;48.918;8.980;2022-09-09T05:37:47;2.70;;;0.90;;
5167;SDS011;2603;48.918;8.980;2022-09-09T05:40:14;5.20;;;1.27;;
5167;SDS011;2603;48.918;8.980;2022-09-09T05:42:40;4.57;;;0.67;;
5167;SDS011;2603;48.918;8.980;2022-09-09T05:45:08;1.60;;;0.57;;
5167;SDS011;2603;48.918;8.980;2022-09-09T05:47:36;5.97;;;1.43;;
5167;SDS011;2603;48.918;8.980;2022-09-09T05:50:05;2.70;;;0.50;;
5167;SDS011;2603;48.918;8.980;2022-09-09T05:52:32;2.83;;;0.97;;
5167;SDS011;2603;48.918;8.980;2022-09-09T05:55:01;1.50;;;0.60;;
5167;SDS011;2603;48.918;8.980;2022-09-09T05:57:29;22.83;;;1.17;;
5167;SDS011;2603;48.918;8.980;2022-09-09T05:59:56;5.63;;;0.83;;
5167;SDS011;2603;48.918;8.980;2022-09-09T06:02:23;1.87;;;1.00;;
5167;SDS011;2603;48.918;8.980;2022-09-09T06:04:50;3.43;;;0.70;;
5167;SDS011;2603;48.918;8.980;2022-09-09T06:07:17;1.60;;;0.73;;
5167;SDS011;2603;48.918;8.980;2022-09-09T06:09:44;3.53;;;0.97;;
5167;SDS011;2603;48.918;8.980;2022-09-09T06:12:12;1.77;;;0.60;;
5167;SDS011;2603;48.918;8.980;2022-09-09T06:14:39;3.87;;;0.80;;
5167;SDS011;2603;48.918;8.980;2022-09-09T06:17:06;2.50;;;0.70;;
5167;SDS011;2603;48.918;8.980;2022-09-09T06:19:32;2.80;;;0.80;;
5167;SDS011;2603;48.918;8.980;2022-09-09T06:21:59;2.73;;;0.73;;
5167;SDS011;2603;48.918;8.980;2022-09-09T06:24:29;1.60;;;0.80;;
5167;SDS011;2603;48.918;8.980;2022-09-09T06:26:58;3.57;;;0.83;;
5167;SDS011;2603;48.918;8.980;2022-09-09T06:29:29;2.90;;;0.70;;
5167;SDS011;2603;48.918;8.980;2022-09-09T06:31:56;2.97;;;0.80;;
5167;SDS011;2603;48.918;8.980;2022-09-09T06:34:25;2.90;;;1.03;;
5167;SDS011;2603;48.918;8.980;2022-09-09T06:36:54;3.50;;;0.97;;
5167;SDS011;2603;48.918;8.980;2022-09-09T06:39:23;4.13;;;0.80;;
5167;SDS011;2603;48.918;8.980;2022-09-09T06:41:49;2.20;;;1.00;;
5167;SDS011;2603;48.918;8.980;2022-09-09T06:44:39;5.87;;;1.00;;
5167;SDS011;2603;48.918;8.980;2022-09-09T06:47:11;3.50;;;1.00;;
5167;SDS011;2603;48.918;8.980;2022-09-09T06:49:39;3.23;;;0.80;;
5167;SDS011;2603;48.918;8.980;2022-09-09T06:52:08;4.90;;;0.63;;
5167;SDS011;2603;48.918;8.980;2022-09-09T06:54:35;4.67;;;0.70;;
5167;SDS011;2603;48.918;8.980;2022-09-09T06:57:03;2.40;;;0.80;;
5167;SDS011;2603;48.918;8.980;2022-09-09T06:59:32;1.60;;;0.60;;
5167;SDS011;2603;48.918;8.980;2022-09-09T07:02:00;2.07;;;0.60;;
5167;SDS011;2603;48.918;8.980;2022-09-09T07:04:28;5.97;;;1.00;;
5167;SDS011;2603;48.918;8.980;2022-09-09T07:06:54;2.00;;;0.90;;
5167;SDS011;2603;48.918;8.980;2022-09-09T07:09:23;4.70;;;1.07;;
5167;SDS011;2603;48.918;8.980;2022-09-09T07:11:51;3.27;;;1.27;;
5167;SDS011;2603;48.918;8.980;2022-09-09T07:14:20;4.70;;;0.60;;
5167;SDS011;2603;48.918;8.980;2022-09-09T07:16:52;5.50;;;0.93;;
5167;SDS011;2603;48.918;8.980;2022-09-09T07:19:20;5.03;;;1.27;;
5167;SDS011;2603;48.918;8.980;2022-09-09T07:21:50;5.07;;;0.87;;
5167;SDS011;2603;48.918;8.980;2022-09-09T07:24:19;5.73;;;0.80;;
5167;SDS011;2603;48.918;8.980;2022-09-09T07:26:46;2.73;;;1.00;;
5167;SDS011;2603;48.918;8.980;2022-09-09T07:29:13;3.23;;;0.87;;
5167;SDS011;2603;48.918;8.980;2022-09-09T07:31:40;4.00;;;0.80;;
5167;SDS011;2603;48.918;8.980;2022-09-09T07:34:11;3.57;;;1.10;;
5167;SDS011;2603;48.918;8.980;2022-09-09T07:36:40;4.40;;;1.27;;
5167;SDS011;2603;48.918;8.980;2022-09-09T07:39:10;4.10;;;0.70;;
5167;SDS011;2603;48.918;8.980;2022-09-09T07:41:41;1.50;;;0.57;;
5167;SDS011;2603;48.918;8.980;2022-09-09T07:44:11;2.30;;;1.10;;
5167;SDS011;2603;48.918;8.980;2022-09-09T07:46:39;2.43;;;0.80;;
5167;SDS011;2603;48.918;8.980;2022-09-09T07:49:08;2.93;;;0.90;;
5167;SDS011;2603;48.918;8.980;2022-09-09T07:51:37;1.73;;;0.60;;
5167;SDS011;2603;48.918;8.980;2022-09-09T07:54:07;1.77;;;0.70;;
5167;SDS011;2603;48.918;8.980;2022-09-09T07:56:37;6.93;;;1.00;;
5167;SDS011;2603;48.918;8.980;2022-09-09T07:59:04;4.27;;;0.80;;
5167;SDS011;2603;48.918;8.980;2022-09-09T08:01:34;2.40;;;0.60;;
5167;SDS011;2603;48.918;8.980;2022-09-09T08:04:05;5.23;;;1.03;;
5167;SDS011;2603;48.918;8.980;2022-09-09T08:06:36;3.27;;;1.30;;
5167;SDS011;2603;48.918;8.980;2022-09-09T08:09:07;3.83;;;0.80;;
5167;SDS011;2603;48.918;8.980;2022-09-09T08:11:35;1.77;;;0.80;;
5167;SDS011;2603;48.918;8.980;2022-09-09T08:14:02;1.20;;;0.70;;
5167;SDS011;2603;48.918;8.980;2022-09-09T08:16:30;6.70;;;0.90;;
5167;SDS011;2603;48.918;8.980;2022-09-09T08:18:59;1.50;;;0.50;;
5167;SDS011;2603;48.918;8.980;2022-09-09T08:21:26;2.00;;;0.63;;
5167;SDS011;2603;48.918;8.980;2022-09-09T08:23:56;5.80;;;1.10;;
5167;SDS011;2603;48.918;8.980;2022-09-09T08:26:27;4.47;;;0.70;;
5167;SDS011;2603;48.918;8.980;2022-09-09T08:28:55;1.70;;;0.70;;
5167;SDS011;2603;48.918;8.980;2022-09-09T08:31:24;9.33;;;0.90;;
5167;SDS011;2603;48.918;8.980;2022-09-09T08:33:53;2.57;;;0.90;;
5167;SDS011;2603;48.918;8.980;2022-09-09T08:36:21;4.13;;;0.90;;
5167;SDS011;2603;48.918;8.980;2022-09-09T08:38:51;2.87;;;0.70;;
5167;SDS011;2603;48.918;8.980;2022-09-09T08:44:31;1.83;;;0.80;;
5167;SDS011;2603;48.918;8.980;2022-09-09T08:47:08;3.30;;;0.93;;
5167;SDS011;2603;48.918;8.980;2022-09-09T08:49:50;3.07;;;0.60;;
5167;SDS011;2603;48.918;8.980;2022-09-09T08:52:38;6.13;;;1.10;;
5167;SDS011;2603;48.918;8.980;2022-09-09T08:55:12;2.03;;;0.80;;
5167;SDS011;2603;48.918;8.980;2022-09-09T08:57:48;3.43;;;0.80;;
5167;SDS011;2603;48.918;8.980;2022-09-09T09:00:16;1.70;;;0.70;;
5167;SDS011;2603;48.918;8.980;2022-09-09T09:02:46;4.20;;;0.90;;
5167;SDS011;2603;48.918;8.980;2022-09-09T09:05:23;2.63;;;1.07;;
5167;SDS011;2603;48.918;8.980;2022-09-09T09:07:55;1.73;;;0.60;;
5167;SDS011;2603;48.918;8.980;2022-09-09T09:10:33;6.13;;;0.70;;
5167;SDS011;2603;48.918;8.980;2022-09-09T09:13:07;2.37;;;0.83;;
5167;SDS011;2603;48.918;8.980;2022-09-09T09:15:41;4.43;;;0.90;;
5167;SDS011;2603;48.918;8.980;2022-09-09T09:18:09;2.73;;;0.50;;
5167;SDS011;2603;48.918;8.980;2022-09-09T09:20:41;7.70;;;1.30;;
5167;SDS011;2603;48.918;8.980;2022-09-09T09:23:12;2.30;;;0.90;;
5167;SDS011;2603;48.918;8.980;2022-09-09T09:25:43;4.50;;;0.90;;
5167;SDS011;2603;48.918;8.980;2022-09-09T09:28:11;2.80;;;0.70;;
5167;SDS011;2603;48.918;8.980;2022-09-09T09:30:47;3.20;;;0.80;;
5167;SDS011;2603;48.918;8.980;2022-09-09T09:33:18;2.40;;;0.60;;
5167;SDS011;2603;48.918;8.980;2022-09-09T09:35:48;4.10;;;0.50;;
5167;SDS011;2603;48.918;8.980;2022-09-09T09:38:16;5.13;;;0.80;;
5167;SDS011;2603;48.918;8.980;2022-09-09T09:40:49;2.10;;;0.67;;
5167;SDS011;2603;48.918;8.980;2022-09-09T09:43:20;3.57;;;0.77;;
5167;SDS011;2603;48.918;8.980;2022-09-09T09:45:49;5.90;;;0.83;;
5167;SDS011;2603;48.918;8.980;2022-09-09T09:48:16;3.00;;;1.00;;
5167;SDS011;2603;48.918;8.980;2022-09-09T09:50:46;6.80;;;0.80;;
5167;SDS011;2603;48.918;8.980;2022-09-09T09:53:22;5.10;;;1.10;;
5167;SDS011;2603;48.918;8.980;2022-09-09T09:55:56;1.90;;;0.90;;
5167;SDS011;2603;48.918;8.980;2022-09-09T09:58:25;2.50;;;0.77;;
5167;SDS011;2603;48.918;8.980;2022-09-09T10:00:54;2.50;;;0.87;;
5167;SDS011;2603;48.918;8.980;2022-09-09T10:03:26;5.23;;;0.87;;
5167;SDS011;2603;48.918;8.980;2022-09-09T10:05:57;3.20;;;0.83;;
5167;SDS011;2603;48.918;8.980;2022-09-09T10:08:24;7.60;;;1.27;;
5167;SDS011;2603;48.918;8.980;2022-09-09T10:11:10;4.90;;;1.00;;
5167;SDS011;2603;48.918;8.980;2022-09-09T10:13:50;7.00;;;1.60;;
5167;SDS011;2603;48.918;8.980;2022-09-09T10:16:25;4.47;;;1.10;;
5167;SDS011;2603;48.918;8.980;2022-09-09T10:18:58;2.37;;;0.70;;
5167;SDS011;2603;48.918;8.980;2022-09-09T10:21:32;3.40;;;0.90;;
5167;SDS011;2603;48.918;8.980;2022-09-09T10:24:19;6.63;;;0.90;;
5167;SDS011;2603;48.918;8.980;2022-09-09T10:27:11;4.73;;;0.87;;
5167;SDS011;2603;48.918;8.980;2022-09-09T10:29:55;4.30;;;0.90;;
5167;SDS011;2603;48.918;8.980;2022-09-09T10:32:35;3.63;;;1.30;;
5167;SDS011;2603;48.918;8.980;2022-09-09T10:35:04;2.50;;;0.70;;
5167;SDS011;2603;48.918;8.980;2022-09-09T10:37:46;2.13;;;1.00;;
5167;SDS011;2603;48.918;8.980;2022-09-09T10:40:23;2.03;;;1.27;;
5167;SDS011;2603;48.918;8.980;2022-09-09T10:42:56;6.53;;;1.20;;
5167;SDS011;2603;48.918;8.980;2022-09-09T10:45:28;1.93;;;0.70;;
5167;SDS011;2603;48.918;8.980;2022-09-09T10:48:04;4.03;;;0.60;;
5167;SDS011;2603;48.918;8.980;2022-09-09T10:50:42;3.00;;;0.70;;
5167;SDS011;2603;48.918;8.980;2022-09-09T10:53:17;4.70;;;1.13;;
5167;SDS011;2603;48.918;8.980;2022-09-09T10:55:50;1.40;;;0.50;;
5167;SDS011;2603;48.918;8.980;2022-09-09T10:58:22;2.00;;;0.80;;
5167;SDS011;2603;48.918;8.980;2022-09-09T11:00:52;3.90;;;1.20;;
5167;SDS011;2603;48.918;8.980;2022-09-09T11:03:22;3.07;;;0.83;;
5167;SDS011;2603;48.918;8.980;2022-09-09T11:05:52;3.13;;;0.67;;
5167;SDS011;2603;48.918;8.980;2022-09-09T11:08:22;1.37;;;0.40;;
5167;SDS011;2603;48.918;8.980;2022-09-09T11:10:51;2.07;;;0.53;;
5167;SDS011;2603;48.918;8.980;2022-09-09T11:13:24;8.23;;;1.30;;
5167;SDS011;2603;48.918;8.980;2022-09-09T11:15:54;2.47;;;0.70;;
5167;SDS011;2603;48.918;8.980;2022-09-09T11:18:26;9.30;;;0.83;;
5167;SDS011;2603;48.918;8.980;2022-09-09T11:20:57;4.50;;;1.33;;
5167;SDS011;2603;48.918;8.980;2022-09-09T11:23:26;3.43;;;0.50;;
5167;SDS011;2603;48.918;8.980;2022-09-09T11:25:57;7.60;;;0.70;;
5167;SDS011;2603;48.918;8.980;2022-09-09T11:28:32;2.10;;;0.83;;
5167;SDS011;2603;48.918;8.980;2022-09-09T11:31:10;2.23;;;0.70;;
5167;SDS011;2603;48.918;8.980;2022-09-09T11:37:00;7.90;;;1.07;;
5167;SDS011;2603;48.918;8.980;2022-09-09T11:39:50;10.00;;;1.33;;
5167;SDS011;2603;48.918;8.980;2022-09-09T11:42:33;3.40;;;0.80;;
5167;SDS011;2603;48.918;8.980;2022-09-09T11:45:08;1.53;;;0.63;;
5167;SDS011;2603;48.918;8.980;2022-09-09T11:47:36;0.90;;;0.50;;
5167;SDS011;2603;48.918;8.980;2022-09-09T11:50:26;2.17;;;0.60;;
5167;SDS011;2603;48.918;8.980;2022-09-09T11:55:59;3.27;;;0.73;;
5167;SDS011;2603;48.918;8.980;2022-09-09T11:58:27;3.10;;;0.50;;
5167;SDS011;2603;48.918;8.980;2022-09-09T12:00:59;1.40;;;0.47;;
5167;SDS011;2603;48.918;8.980;2022-09-09T12:03:34;2.10;;;0.60;;
5167;SDS011;2603;48.918;8.980;2022-09-09T12:06:13;1.20;;;0.40;;
5167;SDS011;2603;48.918;8.980;2022-09-09T12:08:42;1.27;;;0.50;;
5167;SDS011;2603;48.918;8.980;2022-09-09T12:11:11;1.33;;;0.60;;
5167;SDS011;2603;48.918;8.980;2022-09-09T12:13:37;2.33;;;0.70;;
5167;SDS011;2603;48.918;8.980;2022-09-09T12:19:02;1.10;;;0.53;;
5167;SDS011;2603;48.918;8.980;2022-09-09T12:21:33;2.60;;;0.80;;
5167;SDS011;2603;48.918;8.980;2022-09-09T12:24:05;3.20;;;0.70;;
5167;SDS011;2603;48.918;8.980;2022-09-09T12:26:35;1.73;;;0.50;;
5167;SDS011;2603;48.918;8.980;2022-09-09T12:29:06;4.30;;;0.90;;
5167;SDS011;2603;48.918;8.980;2022-09-09T12:31:40;1.10;;;0.50;;
5167;SDS011;2603;48.918;8.980;2022-09-09T12:34:09;1.63;;;0.50;;
5167;SDS011;2603;48.918;8.980;2022-09-09T12:36:38;2.03;;;0.50;;
5167;SDS011;2603;48.918;8.980;2022-09-09T12:39:10;4.17;;;0.70;;
5167;SDS011;2603;48.918;8.980;2022-09-09T12:41:50;1.50;;;0.50;;
5167;SDS011;2603;48.918;8.980;2022-09-09T12:44:22;2.13;;;0.60;;
5167;SDS011;2603;48.918;8.980;2022-09-09T12:46:49;2.50;;;0.50;;
5167;SDS011;2603;48.918;8.980;2022-09-09T12:49:23;2.03;;;0.50;;
5167;SDS011;2603;48.918;8.980;2022-09-09T12:51:57;1.43;;;0.60;;
5167;SDS011;2603;48.918;8.980;2022-09-09T12:54:25;2.63;;;0.63;;
5167;SDS011;2603;48.918;8.980;2022-09-09T12:56:53;3.30;;;0.80;;
5167;SDS011;2603;48.918;8.980;2022-09-09T12:59:23;2.57;;;0.70;;
5167;SDS011;2603;48.918;8.980;2022-09-09T13:01:57;1.83;;;0.40;;
5167;SDS011;2603;48.918;8.980;2022-09-09T13:04:24;2.80;;;0.50;;
5167;SDS011;2603;48.918;8.980;2022-09-09T13:06:51;2.33;;;0.70;;
5167;SDS011;2603;48.918;8.980;2022-09-09T13:09:19;1.77;;;0.60;;
5167;SDS011;2603;48.918;8.980;2022-09-09T13:11:46;1.90;;;0.50;;
5167;SDS011;2603;48.918;8.980;2022-09-09T13:14:15;2.20;;;0.50;;
5167;SDS011;2603;48.918;8.980;2022-09-09T13:16:53;4.67;;;0.97;;
5167;SDS011;2603;48.918;8.980;2022-09-09T13:19:21;2.10;;;0.90;;
5167;SDS011;2603;48.918;8.980;2022-09-09T13:21:50;3.47;;;0.63;;
5167;SDS011;2603;48.918;8.980;2022-09-09T13:27:05;3.90;;;0.77;;
5167;SDS011;2603;48.918;8.980;2022-09-09T13:29:50;2.50;;;0.70;;
5167;SDS011;2603;48.918;8.980;2022-09-09T13:32:20;4.03;;;0.70;;
5167;SDS011;2603;48.918;8.980;2022-09-09T13:34:50;3.13;;;0.70;;
5167;SDS011;2603;48.918;8.980;2022-09-09T13:37:19;6.97;;;0.80;;
5167;SDS011;2603;48.918;8.980;2022-09-09T13:40:00;2.78;;;0.80;;
5167;SDS011;2603;48.918;8.980;2022-09-09T13:42:28;1.47;;;0.60;;
5167;SDS011;2603;48.918;8.980;2022-09-09T13:44:56;2.80;;;0.80;;
5167;SDS011;2603;48.918;8.980;2022-09-09T13:47:27;2.03;;;0.50;;
5167;SDS011;2603;48.918;8.980;2022-09-09T13:49:56;7.13;;;0.70;;
5167;SDS011;2603;48.918;8.980;2022-09-09T13:52:23;2.70;;;0.63;;
5167;SDS011;2603;48.918;8.980;2022-09-09T13:54:57;1.83;;;0.63;;
5167;SDS011;2603;48.918;8.980;2022-09-09T13:57:25;1.67;;;0.57;;
5167;SDS011;2603;48.918;8.980;2022-09-09T13:59:53;2.30;;;0.53;;
5167;SDS011;2603;48.918;8.980;2022-09-09T14:02:20;2.90;;;0.63;;
5167;SDS011;2603;48.918;8.980;2022-09-09T14:04:48;4.57;;;0.70;;
5167;SDS011;2603;48.918;8.980;2022-09-09T14:07:16;3.23;;;0.53;;
5167;SDS011;2603;48.918;8.980;2022-09-09T14:09:44;2.67;;;0.70;;
5167;SDS011;2603;48.918;8.980;2022-09-09T14:12:15;2.70;;;0.80;;
5167;SDS011;2603;48.918;8.980;2022-09-09T14:14:43;3.60;;;0.70;;
5167;SDS011;2603;48.918;8.980;2022-09-09T14:17:10;4.37;;;0.80;;
5167;SDS011;2603;48.918;8.980;2022-09-09T14:19:37;3.23;;;0.70;;
5167;SDS011;2603;48.918;8.980;2022-09-09T14:22:03;3.30;;;0.70;;
5167;SDS011;2603;48.918;8.980;2022-09-09T14:24:30;2.30;;;0.60;;
5167;SDS011;2603;48.918;8.980;2022-09-09T14:26:57;1.13;;;0.47;;
5167;SDS011;2603;48.918;8.980;2022-09-09T14:29:23;2.43;;;0.70;;
5167;SDS011;2603;48.918;8.980;2022-09-09T14:31:53;2.37;;;0.70;;
5167;SDS011;2603;48.918;8.980;2022-09-09T14:34:19;1.10;;;0.50;;
5167;SDS011;2603;48.918;8.980;2022-09-09T14:36:46;1.40;;;0.50;;
5167;SDS011;2603;48.918;8.980;2022-09-09T14:39:13;1.83;;;0.50;;
5167;SDS011;2603;48.918;8.980;2022-09-09T14:41:40;3.93;;;0.70;;
5167;SDS011;2603;48.918;8.980;2022-09-09T14:44:06;2.60;;;0.53;;
5167;SDS011;2603;48.918;8.980;2022-09-09T14:46:33;2.70;;;0.40;;
5167;SDS011;2603;48.918;8.980;2022-09-09T14:49:01;1.50;;;0.50;;
5167;SDS011;2603;48.918;8.980;2022-09-09T14:51:28;2.00;;;0.70;;
5167;SDS011;2603;48.918;8.980;2022-09-09T14:53:56;1.00;;;0.40;;
5167;SDS011;2603;48.918;8.980;2022-09-09T14:56:24;2.23;;;0.60;;
5167;SDS011;2603;48.918;8.980;2022-09-09T14:58:52;2.53;;;0.60;;
5167;SDS011;2603;48.918;8.980;2022-09-09T15:01:20;2.43;;;0.90;;
5167;SDS011;2603;48.918;8.980;2022-09-09T15:03:51;2.00;;;0.50;;
5167;SDS011;2603;48.918;8.980;2022-09-09T15:06:21;1.60;;;0.60;;
5167;SDS011;2603;48.918;8.980;2022-09-09T15:08:49;5.87;;;0.50;;
5167;SDS011;2603;48.918;8.980;2022-09-09T15:11:17;1.20;;;0.60;;
5167;SDS011;2603;48.918;8.980;2022-09-09T15:13:44;1.63;;;0.60;;
5167;SDS011;2603;48.918;8.980;2022-09-09T15:16:11;2.07;;;0.50;;
5167;SDS011;2603;48.918;8.980;2022-09-09T15:18:38;1.37;;;0.70;;
5167;SDS011;2603;48.918;8.980;2022-09-09T15:21:08;1.83;;;0.80;;
5167;SDS011;2603;48.918;8.980;2022-09-09T15:23:36;2.10;;;0.87;;
5167;SDS011;2603;48.918;8.980;2022-09-09T15:26:03;1.33;;;0.43;;
5167;SDS011;2603;48.918;8.980;2022-09-09T15:28:31;1.93;;;0.60;;
5167;SDS011;2603;48.918;8.980;2022-09-09T15:30:59;7.17;;;0.77;;
5167;SDS011;2603;48.918;8.980;2022-09-09T15:33:32;3.97;;;1.00;;
5167;SDS011;2603;48.918;8.980;2022-09-09T15:36:00;2.33;;;0.50;;
5167;SDS011;2603;48.918;8.980;2022-09-09T15:38:27;3.17;;;1.20;;
5167;SDS011;2603;48.918;8.980;2022-09-09T15:40:55;2.87;;;0.70;;
5167;SDS011;2603;48.918;8.980;2022-09-09T15:43:22;1.33;;;0.50;;
5167;SDS011;2603;48.918;8.980;2022-09-09T15:45:49;2.03;;;0.60;;
5167;SDS011;2603;48.918;8.980;2022-09-09T15:48:20;2.30;;;0.60;;
5167;SDS011;2603;48.918;8.980;2022-09-09T15:50:54;1.93;;;0.70;;
5167;SDS011;2603;48.918;8.980;2022-09-09T15:53:28;2.40;;;0.50;;